createdAt,value
2018-02-05T00:00:54.199Z,21.50
2018-02-05T00:01:54.214Z,21.80
2018-02-05T00:02:54.256Z,22.40
2018-02-05T00:03:54.270Z,21.50
2018-02-05T00:04:54.293Z,23.20
2018-02-05T00:05:54.323Z,21.80
2018-02-05T00:06:54.403Z,22.40
2018-02-05T00:07:54.375Z,24.60
2018-02-05T00:08:54.415Z,22.00
2018-02-05T00:09:54.432Z,22.60
2018-02-05T00:10:54.456Z,23.40
2018-02-05T00:11:54.482Z,22.80
2018-02-05T00:12:54.511Z,21.70
2018-02-05T00:13:54.739Z,21.70
2018-02-05T00:14:54.564Z,22.70
2018-02-05T00:15:54.592Z,22.80
2018-02-05T00:16:54.617Z,23.20
2018-02-05T00:17:54.645Z,23.40
2018-02-05T00:18:54.673Z,23.80
2018-02-05T00:19:54.702Z,24.80
2018-02-05T00:20:54.728Z,23.10
2018-02-05T00:21:54.755Z,22.90
2018-02-05T00:22:54.782Z,23.90
2018-02-05T00:23:54.808Z,21.80
2018-02-05T00:24:54.833Z,25.70
2018-02-05T00:25:54.862Z,24.40
2018-02-05T00:26:54.895Z,25.30
2018-02-05T00:27:54.914Z,23.40
2018-02-05T00:28:54.944Z,24.90
2018-02-05T00:29:54.969Z,24.00
2018-02-05T00:30:55.100Z,22.30
2018-02-05T00:31:55.025Z,23.30
2018-02-05T00:32:55.054Z,23.30
2018-02-05T00:33:55.079Z,23.30
2018-02-05T00:34:55.105Z,25.30
2018-02-05T00:35:55.134Z,24.70
2018-02-05T00:36:55.161Z,22.30
2018-02-05T00:37:55.193Z,25.00
2018-02-05T00:38:55.213Z,24.70
2018-02-05T00:39:55.239Z,24.20
2018-02-05T00:40:55.278Z,24.80
2018-02-05T00:41:55.296Z,23.90
2018-02-05T00:42:55.406Z,25.30
2018-02-05T00:43:55.356Z,25.50
2018-02-05T00:44:55.376Z,24.00
2018-02-05T00:45:55.403Z,25.00
2018-02-05T00:46:55.429Z,24.30
2018-02-05T00:47:55.457Z,26.70
2018-02-05T00:48:55.486Z,24.60
2018-02-05T00:49:55.537Z,25.30
2018-02-05T00:50:55.537Z,27.50
2018-02-05T00:51:55.588Z,27.10
2018-02-05T00:52:55.648Z,25.30
2018-02-05T00:53:55.628Z,24.70
2018-02-05T00:54:55.646Z,26.40
2018-02-05T00:55:55.688Z,25.30
2018-02-05T00:56:55.700Z,25.00
2018-02-05T00:57:55.727Z,25.00
2018-02-05T00:58:55.752Z,25.10
2018-02-05T00:59:55.847Z,23.80
2018-02-05T01:00:55.822Z,22.60
2018-02-05T01:01:55.840Z,23.80
2018-02-05T01:02:55.859Z,26.90
2018-02-05T01:03:55.889Z,25.20
2018-02-05T01:04:55.918Z,24.60
2018-02-05T01:05:55.943Z,24.90
2018-02-05T01:06:55.968Z,25.80
2018-02-05T01:07:55.998Z,26.40
2018-02-05T01:08:56.024Z,26.40
2018-02-05T01:09:56.048Z,25.70
2018-02-05T01:10:56.078Z,25.70
2018-02-05T01:11:56.104Z,25.40
2018-02-05T01:12:56.131Z,26.30
2018-02-05T01:13:56.173Z,25.10
2018-02-05T01:14:56.184Z,26.20
2018-02-05T01:15:56.212Z,25.20
2018-02-05T01:16:56.252Z,26.30
2018-02-05T01:17:56.279Z,25.70
2018-02-05T01:18:56.292Z,24.40
2018-02-05T01:19:56.332Z,27.10
2018-02-05T01:20:56.353Z,25.90
2018-02-05T01:21:56.381Z,25.50
2018-02-05T01:22:56.400Z,24.70
2018-02-05T01:23:56.445Z,24.50
2018-02-05T01:24:56.454Z,27.20
2018-02-05T01:25:56.483Z,28.00
2018-02-05T01:26:56.567Z,26.50
2018-02-05T01:27:56.535Z,25.20
2018-02-05T01:28:56.566Z,24.40
2018-02-05T01:29:56.591Z,27.50
2018-02-05T01:30:56.625Z,26.50
2018-02-05T01:31:56.643Z,24.80
2018-02-05T01:32:56.672Z,26.00
2018-02-05T01:33:56.698Z,26.30
2018-02-05T01:34:57.037Z,24.80
2018-02-05T01:35:56.752Z,25.20
2018-02-05T01:36:56.777Z,26.20
2018-02-05T01:37:56.824Z,24.90
2018-02-05T01:38:56.833Z,27.70
2018-02-05T01:39:56.857Z,24.90
2018-02-05T01:40:56.893Z,26.40
2018-02-05T01:41:56.914Z,25.00
2018-02-05T01:42:56.955Z,26.40
2018-02-05T01:43:56.968Z,28.90
2018-02-05T01:44:56.993Z,27.00
2018-02-05T01:45:57.128Z,25.70
2018-02-05T01:46:57.046Z,27.80
2018-02-05T01:47:57.075Z,26.50
2018-02-05T01:48:57.106Z,27.80
2018-02-05T01:49:57.134Z,26.00
2018-02-05T01:50:57.156Z,26.50
2018-02-05T01:51:57.183Z,27.30
2018-02-05T01:52:57.208Z,26.50
2018-02-05T01:53:57.236Z,24.80
2018-02-05T01:54:57.277Z,26.40
2018-02-05T01:55:57.289Z,27.90
2018-02-05T01:56:57.318Z,26.80
2018-02-05T01:57:57.356Z,27.60
2018-02-05T01:58:57.374Z,28.40
2018-02-05T01:59:57.397Z,26.70
2018-02-05T02:00:57.426Z,28.00
2018-02-05T02:01:57.455Z,27.10
2018-02-05T02:02:57.480Z,26.20
2018-02-05T02:03:57.504Z,26.60
2018-02-05T02:04:57.536Z,27.10
2018-02-05T02:05:57.565Z,28.50
2018-02-05T02:06:57.585Z,28.30
2018-02-05T02:08:57.645Z,28.00
2018-02-05T02:09:57.724Z,28.30
2018-02-05T02:10:57.696Z,26.90
2018-02-05T02:11:57.721Z,29.20
2018-02-05T02:12:57.750Z,27.00
2018-02-05T02:13:57.779Z,27.20
2018-02-05T02:14:57.807Z,27.80
2018-02-05T02:15:57.828Z,29.10
2018-02-05T02:16:57.858Z,26.20
2018-02-05T02:17:57.881Z,28.80
2018-02-05T02:18:57.909Z,25.90
2018-02-05T02:19:57.939Z,27.40
2018-02-05T02:20:57.962Z,28.60
2018-02-05T02:21:57.990Z,27.40
2018-02-05T02:22:58.018Z,27.50
2018-02-05T02:23:58.044Z,28.00
2018-02-05T02:24:58.070Z,25.40
2018-02-05T02:25:58.137Z,26.60
2018-02-05T02:26:58.182Z,25.90
2018-02-05T02:27:58.150Z,27.50
2018-02-05T02:28:58.178Z,27.70
2018-02-05T02:29:58.203Z,26.20
2018-02-05T02:30:58.232Z,26.10
2018-02-05T02:31:58.266Z,28.30
2018-02-05T02:32:58.283Z,29.10
2018-02-05T02:33:58.311Z,28.10
2018-02-05T02:34:58.338Z,29.00
2018-02-05T02:35:58.364Z,28.10
2018-02-05T02:36:58.393Z,28.70
2018-02-05T02:37:58.421Z,28.40
2018-02-05T02:38:58.512Z,28.50
2018-02-05T02:39:58.480Z,26.50
2018-02-05T02:40:58.512Z,27.00
2018-02-05T02:41:58.524Z,28.00
2018-02-05T02:42:58.552Z,28.30
2018-02-05T02:43:58.579Z,28.10
2018-02-05T02:44:58.611Z,27.10
2018-02-05T02:45:58.635Z,26.60
2018-02-05T02:46:58.661Z,26.00
2018-02-05T02:47:58.685Z,27.00
2018-02-05T02:48:58.713Z,27.10
2018-02-05T02:49:58.742Z,25.30
2018-02-05T02:50:58.766Z,24.90
2018-02-05T02:51:58.796Z,26.90
2018-02-05T02:52:58.821Z,28.00
2018-02-05T02:53:58.851Z,27.20
2018-02-05T02:54:58.878Z,29.00
2018-02-05T02:55:58.947Z,26.10
2018-02-05T02:56:58.931Z,28.80
2018-02-05T02:57:58.957Z,26.70
2018-02-05T02:58:58.984Z,28.40
2018-02-05T02:59:59.066Z,28.20
2018-02-05T03:00:59.038Z,30.60
2018-02-05T03:01:59.063Z,29.90
2018-02-05T03:02:59.093Z,29.30
2018-02-05T03:03:59.119Z,28.30
2018-02-05T03:04:59.143Z,28.60
2018-02-05T03:05:59.172Z,30.50
2018-02-05T03:06:59.198Z,30.40
2018-02-05T03:07:59.222Z,35.30
2018-02-05T03:08:59.268Z,35.30
2018-02-05T03:09:59.278Z,33.70
2018-02-05T03:10:59.306Z,31.80
2018-02-05T03:11:59.332Z,31.80
2018-02-05T03:12:59.363Z,30.50
2018-02-05T03:13:59.382Z,28.10
2018-02-05T03:14:59.425Z,26.20
2018-02-05T03:15:59.438Z,27.20
2018-02-05T03:16:59.465Z,25.30
2018-02-05T03:17:59.493Z,30.40
2018-02-05T03:18:59.516Z,30.20
2018-02-05T03:19:59.601Z,30.60
2018-02-05T03:20:59.575Z,32.90
2018-02-05T03:21:59.600Z,33.30
2018-02-05T03:22:59.624Z,31.60
2018-02-05T03:23:59.654Z,31.00
2018-02-05T03:24:59.686Z,32.70
2018-02-05T03:25:59.719Z,28.00
2018-02-05T03:26:59.730Z,31.10
2018-02-05T03:27:59.758Z,30.90
2018-02-05T03:28:59.798Z,29.80
2018-02-05T03:29:59.815Z,29.10
2018-02-05T03:30:59.838Z,31.80
2018-02-05T03:31:59.968Z,30.50
2018-02-05T03:32:59.895Z,29.80
2018-02-05T03:33:59.921Z,30.40
2018-02-05T03:34:59.946Z,31.70
2018-02-05T03:35:59.976Z,29.80
2018-02-05T03:37:00.002Z,28.80
2018-02-05T03:38:00.031Z,26.40
2018-02-05T03:39:00.057Z,31.50
2018-02-05T03:40:00.089Z,34.00
2018-02-05T03:41:00.121Z,30.40
2018-02-05T03:42:00.170Z,28.90
2018-02-05T03:43:00.160Z,33.50
2018-02-05T03:45:00.218Z,30.40
2018-02-05T03:46:00.245Z,30.00
2018-02-05T03:47:00.282Z,28.10
2018-02-05T03:48:00.294Z,27.00
2018-02-05T03:49:00.467Z,29.80
2018-02-05T03:50:00.349Z,34.00
2018-02-05T03:51:00.379Z,31.90
2018-02-05T03:52:00.403Z,27.40
2018-02-05T03:53:00.429Z,26.40
2018-02-05T03:54:00.459Z,27.60
2018-02-05T03:55:00.480Z,26.90
2018-02-05T03:56:00.508Z,26.50
2018-02-05T03:57:00.538Z,26.60
2018-02-05T03:58:00.561Z,27.50
2018-02-05T03:59:00.588Z,26.80
2018-02-05T04:00:00.619Z,26.80
2018-02-05T04:01:00.644Z,24.50
2018-02-05T04:02:00.670Z,26.20
2018-02-05T04:03:00.693Z,25.60
2018-02-05T04:04:00.723Z,25.80
2018-02-05T04:05:00.750Z,26.00
2018-02-05T04:06:01.177Z,24.50
2018-02-05T04:07:01.118Z,26.10
2018-02-05T04:08:00.830Z,26.90
2018-02-05T04:09:00.856Z,26.60
2018-02-05T04:10:00.884Z,26.30
2018-02-05T04:11:00.910Z,26.30
2018-02-05T04:12:00.940Z,27.10
2018-02-05T04:13:00.964Z,25.50
2018-02-05T04:14:00.991Z,25.00
2018-02-05T04:15:01.021Z,25.60
2018-02-05T04:16:01.044Z,26.40
2018-02-05T04:17:01.071Z,26.50
2018-02-05T04:18:01.198Z,26.20
2018-02-05T04:19:01.124Z,25.60
2018-02-05T04:20:01.151Z,26.80
2018-02-05T04:21:01.183Z,24.60
2018-02-05T04:22:01.205Z,27.10
2018-02-05T04:23:01.234Z,27.00
2018-02-05T04:24:01.272Z,25.00
2018-02-05T04:25:01.285Z,26.50
2018-02-05T04:26:01.329Z,27.30
2018-02-05T04:27:01.339Z,27.10
2018-02-05T04:28:01.369Z,26.40
2018-02-05T04:29:01.393Z,27.20
2018-02-05T04:30:01.433Z,25.90
2018-02-05T04:31:01.448Z,27.40
2018-02-05T04:32:01.474Z,25.20
2018-02-05T04:33:01.512Z,28.90
2018-02-05T04:34:01.531Z,28.40
2018-02-05T04:35:01.583Z,27.00
2018-02-05T04:36:01.580Z,25.60
2018-02-05T04:37:01.663Z,27.00
2018-02-05T04:38:01.633Z,26.00
2018-02-05T04:39:01.659Z,26.80
2018-02-05T04:40:01.686Z,26.40
2018-02-05T04:41:01.719Z,26.30
2018-02-05T04:42:01.744Z,26.10
2018-02-05T04:43:01.767Z,23.40
2018-02-05T04:44:01.794Z,29.30
2018-02-05T04:45:01.826Z,25.40
2018-02-05T04:46:01.850Z,25.90
2018-02-05T04:47:01.878Z,26.90
2018-02-05T04:48:01.957Z,25.80
2018-02-05T04:49:01.930Z,25.70
2018-02-05T04:50:01.958Z,26.40
2018-02-05T04:51:02.000Z,24.50
2018-02-05T04:52:02.035Z,26.20
2018-02-05T04:53:02.038Z,25.20
2018-02-05T04:54:02.066Z,27.00
2018-02-05T04:55:02.090Z,29.30
2018-02-05T04:56:02.119Z,26.80
2018-02-05T04:57:02.149Z,25.70
2018-02-05T04:58:02.190Z,26.50
2018-02-05T04:59:02.198Z,28.30
2018-02-05T05:00:02.226Z,28.40
2018-02-05T05:01:02.276Z,26.40
2018-02-05T05:02:02.288Z,28.60
2018-02-05T05:03:02.322Z,27.60
2018-02-05T05:04:02.337Z,25.90
2018-02-05T05:05:02.363Z,28.80
2018-02-05T05:06:02.390Z,28.60
2018-02-05T05:07:02.432Z,27.20
2018-02-05T05:08:02.461Z,27.90
2018-02-05T05:09:02.470Z,27.80
2018-02-05T05:10:02.497Z,29.00
2018-02-05T05:11:02.529Z,28.70
2018-02-05T05:12:02.551Z,28.30
2018-02-05T05:13:02.582Z,28.60
2018-02-05T05:14:02.609Z,29.40
2018-02-05T05:15:02.646Z,31.20
2018-02-05T05:16:02.660Z,30.10
2018-02-05T05:17:02.689Z,28.20
2018-02-05T05:18:02.715Z,29.60
2018-02-05T05:19:02.749Z,30.90
2018-02-05T05:20:02.772Z,31.50
2018-02-05T05:21:02.859Z,31.50
2018-02-05T05:22:02.825Z,30.60
2018-02-05T05:23:02.850Z,31.20
2018-02-05T05:24:02.881Z,34.40
2018-02-05T05:25:02.906Z,37.20
2018-02-05T05:26:02.933Z,31.80
2018-02-05T05:27:02.959Z,36.80
2018-02-05T05:28:03.044Z,33.20
2018-02-05T05:29:03.011Z,33.20
2018-02-05T05:30:03.040Z,32.40
2018-02-05T05:31:03.070Z,34.40
2018-02-05T05:32:03.093Z,36.60
2018-02-05T05:33:03.120Z,32.50
2018-02-05T05:34:03.162Z,31.80
2018-02-05T05:35:03.175Z,35.10
2018-02-05T05:36:03.213Z,30.70
2018-02-05T05:37:03.231Z,32.40
2018-02-05T05:38:03.314Z,33.20
2018-02-05T05:39:03.284Z,31.30
2018-02-05T05:40:03.513Z,32.50
2018-02-05T05:41:03.342Z,31.90
2018-02-05T05:42:03.363Z,30.40
2018-02-05T05:43:03.390Z,29.70
2018-02-05T05:44:03.421Z,31.90
2018-02-05T05:45:03.517Z,31.80
2018-02-05T05:46:03.476Z,31.10
2018-02-05T05:47:03.502Z,32.70
2018-02-05T05:48:03.526Z,32.00
2018-02-05T05:49:03.555Z,31.40
2018-02-05T05:50:03.584Z,31.40
2018-02-05T05:51:03.607Z,32.00
2018-02-05T05:52:03.636Z,33.60
2018-02-05T05:53:03.666Z,40.80
2018-02-05T05:54:03.693Z,40.60
2018-02-05T05:55:03.812Z,45.40
2018-02-05T05:56:03.747Z,39.20
2018-02-05T05:57:03.774Z,33.60
2018-02-05T05:58:03.814Z,34.80
2018-02-05T05:59:03.827Z,31.10
2018-02-05T06:00:03.862Z,32.30
2018-02-05T06:01:03.889Z,30.70
2018-02-05T06:02:03.910Z,31.00
2018-02-05T06:03:03.936Z,31.70
2018-02-05T06:04:03.964Z,28.40
2018-02-05T06:05:03.999Z,29.90
2018-02-05T06:06:04.019Z,29.70
2018-02-05T06:07:04.048Z,29.00
2018-02-05T06:08:04.075Z,30.30
2018-02-05T06:09:04.105Z,29.70
2018-02-05T06:10:04.139Z,28.90
2018-02-05T06:11:04.169Z,30.10
2018-02-05T06:12:04.184Z,28.20
2018-02-05T06:13:04.260Z,28.00
2018-02-05T06:14:04.364Z,30.60
2018-02-05T06:15:04.264Z,28.80
2018-02-05T06:16:04.290Z,28.60
2018-02-05T06:17:04.318Z,30.30
2018-02-05T06:18:04.346Z,27.90
2018-02-05T06:19:04.375Z,28.60
2018-02-05T06:20:04.415Z,30.90
2018-02-05T06:21:04.429Z,28.50
2018-02-05T06:22:04.456Z,26.80
2018-02-05T06:23:04.482Z,29.90
2018-02-05T06:24:04.510Z,27.60
2018-02-05T06:25:04.537Z,28.70
2018-02-05T06:26:04.567Z,31.40
2018-02-05T06:27:04.592Z,32.30
2018-02-05T06:28:04.619Z,30.30
2018-02-05T06:29:04.649Z,28.30
2018-02-05T06:30:04.677Z,30.80
2018-02-05T06:31:04.797Z,27.10
2018-02-05T06:32:04.731Z,28.80
2018-02-05T06:33:04.814Z,34.20
2018-02-05T06:34:04.810Z,28.80
2018-02-05T06:35:04.809Z,28.30
2018-02-05T06:36:04.860Z,28.00
2018-02-05T06:37:04.868Z,26.40
2018-02-05T06:38:04.898Z,27.60
2018-02-05T06:39:04.921Z,27.10
2018-02-05T06:40:04.948Z,25.10
2018-02-05T06:41:04.977Z,26.50
2018-02-05T06:42:05.009Z,26.90
2018-02-05T06:43:05.032Z,28.00
2018-02-05T06:44:05.072Z,27.10
2018-02-05T06:45:05.089Z,25.70
2018-02-05T06:46:05.129Z,26.80
2018-02-05T06:47:05.153Z,26.40
2018-02-05T06:48:05.536Z,28.80
2018-02-05T06:49:05.200Z,28.10
2018-02-05T06:50:05.229Z,24.60
2018-02-05T06:51:05.253Z,25.00
2018-02-05T06:53:05.310Z,25.20
2018-02-05T06:54:05.335Z,26.40
2018-02-05T06:55:05.362Z,21.90
2018-02-05T06:56:05.593Z,24.90
2018-02-05T06:57:05.420Z,22.70
2018-02-05T06:59:05.472Z,21.40
2018-02-05T07:00:05.559Z,22.90
2018-02-05T07:01:05.525Z,22.30
2018-02-05T07:02:05.561Z,23.70
2018-02-05T07:03:05.583Z,23.90
2018-02-05T07:04:05.612Z,22.90
2018-02-05T07:05:05.641Z,23.00
2018-02-05T07:06:05.663Z,23.10
2018-02-05T07:07:05.693Z,22.20
2018-02-05T07:08:05.724Z,24.50
2018-02-05T07:09:05.746Z,24.90
2018-02-05T07:10:05.834Z,24.70
2018-02-05T07:11:05.802Z,26.50
2018-02-05T07:12:05.832Z,24.60
2018-02-05T07:13:05.857Z,22.30
2018-02-05T07:14:05.885Z,24.30
2018-02-05T07:15:05.974Z,23.20
2018-02-05T07:16:05.942Z,24.90
2018-02-05T07:17:06.073Z,22.70
2018-02-05T07:18:05.995Z,23.70
2018-02-05T07:19:06.037Z,23.40
2018-02-05T07:20:06.055Z,23.30
2018-02-05T07:21:06.086Z,22.90
2018-02-05T07:22:06.107Z,21.30
2018-02-05T07:23:06.148Z,22.40
2018-02-05T07:24:06.498Z,22.60
2018-02-05T07:25:06.189Z,21.40
2018-02-05T07:26:06.216Z,23.30
2018-02-05T07:27:06.243Z,21.10
2018-02-05T07:28:06.272Z,20.80
2018-02-05T07:29:06.301Z,21.00
2018-02-05T07:30:06.343Z,23.90
2018-02-05T07:31:06.354Z,22.50
2018-02-05T07:32:06.384Z,22.20
2018-02-05T07:33:06.410Z,24.60
2018-02-05T07:34:06.460Z,23.20
2018-02-05T07:35:06.465Z,21.30
2018-02-05T07:36:06.505Z,21.70
2018-02-05T07:37:06.530Z,22.70
2018-02-05T07:38:06.547Z,22.50
2018-02-05T07:39:06.576Z,24.30
2018-02-05T07:40:06.606Z,22.70
2018-02-05T07:41:07.048Z,22.40
2018-02-05T07:42:06.671Z,24.30
2018-02-05T07:43:06.686Z,25.40
2018-02-05T07:44:06.715Z,23.60
2018-02-05T07:45:06.741Z,25.10
2018-02-05T07:46:06.768Z,24.70
2018-02-05T07:47:06.810Z,23.60
2018-02-05T07:48:06.826Z,22.90
2018-02-05T07:49:06.849Z,21.50
2018-02-05T07:50:06.879Z,22.90
2018-02-05T07:51:06.907Z,21.90
2018-02-05T07:52:06.940Z,22.20
2018-02-05T07:53:07.026Z,23.60
2018-02-05T07:54:06.989Z,22.80
2018-02-05T07:55:07.077Z,22.90
2018-02-05T07:57:07.073Z,23.20
2018-02-05T07:58:07.099Z,22.00
2018-02-05T07:59:07.128Z,22.90
2018-02-05T08:00:07.157Z,22.40
2018-02-05T08:01:07.180Z,21.60
2018-02-05T08:02:07.224Z,22.60
2018-02-05T08:03:07.294Z,23.70
2018-02-05T08:04:07.263Z,24.80
2018-02-05T08:05:07.296Z,24.10
2018-02-05T08:06:07.322Z,22.30
2018-02-05T08:07:07.361Z,22.90
2018-02-05T08:08:07.374Z,23.40
2018-02-05T08:09:07.407Z,20.60
2018-02-05T08:10:07.521Z,19.90
2018-02-05T08:11:07.460Z,20.50
2018-02-05T08:12:07.490Z,19.30
2018-02-05T08:13:07.521Z,19.30
2018-02-05T08:14:07.543Z,20.90
2018-02-05T08:15:07.570Z,18.20
2018-02-05T08:16:07.595Z,16.90
2018-02-05T08:17:07.645Z,19.60
2018-02-05T08:18:07.653Z,20.00
2018-02-05T08:20:07.760Z,19.70
2018-02-05T08:21:07.736Z,19.20
2018-02-05T08:22:07.966Z,19.30
2018-02-05T08:23:07.792Z,19.40
2018-02-05T08:24:07.816Z,18.80
2018-02-05T08:25:07.860Z,18.70
2018-02-05T08:26:07.873Z,20.50
2018-02-05T08:27:08.226Z,20.00
2018-02-05T08:28:07.926Z,18.60
2018-02-05T08:29:07.954Z,18.40
2018-02-05T08:30:07.984Z,19.70
2018-02-05T08:31:08.012Z,19.90
2018-02-05T08:32:08.042Z,19.00
2018-02-05T08:33:08.064Z,17.70
2018-02-05T08:34:08.099Z,20.30
2018-02-05T08:35:08.124Z,18.50
2018-02-05T08:36:08.152Z,20.30
2018-02-05T08:37:08.177Z,19.60
2018-02-05T08:38:08.214Z,20.60
2018-02-05T08:39:08.568Z,21.20
2018-02-05T08:40:08.262Z,17.80
2018-02-05T08:41:08.303Z,19.60
2018-02-05T08:42:08.315Z,18.20
2018-02-05T08:43:08.343Z,19.80
2018-02-05T08:44:08.374Z,20.70
2018-02-05T08:45:08.398Z,23.00
2018-02-05T08:46:08.564Z,22.40
2018-02-05T08:47:08.454Z,20.40
2018-02-05T08:48:08.485Z,21.20
2018-02-05T08:49:08.514Z,21.50
2018-02-05T08:50:08.550Z,22.50
2018-02-05T08:51:08.566Z,17.00
2018-02-05T08:52:08.598Z,17.40
2018-02-05T08:53:08.680Z,17.70
2018-02-05T08:54:08.651Z,18.80
2018-02-05T08:55:08.677Z,19.80
2018-02-05T08:56:08.717Z,20.40
2018-02-05T08:57:08.745Z,20.20
2018-02-05T08:58:08.766Z,22.40
2018-02-05T08:59:09.043Z,19.70
2018-02-05T09:00:08.822Z,20.40
2018-02-05T09:01:08.859Z,21.20
2018-02-05T09:02:08.896Z,21.60
2018-02-05T09:03:08.941Z,21.50
2018-02-05T09:04:08.935Z,20.80
2018-02-05T09:05:08.976Z,22.30
2018-02-05T09:06:08.991Z,24.50
2018-02-05T09:07:09.018Z,20.00
2018-02-05T09:08:09.049Z,19.40
2018-02-05T09:09:09.076Z,19.50
2018-02-05T09:10:09.104Z,18.90
2018-02-05T09:11:09.164Z,19.80
2018-02-05T09:12:09.160Z,19.20
2018-02-05T09:13:09.192Z,20.30
2018-02-05T09:14:09.226Z,20.50
2018-02-05T09:15:09.247Z,19.70
2018-02-05T09:16:09.279Z,19.40
2018-02-05T09:17:09.302Z,20.20
2018-02-05T09:18:09.332Z,19.30
2018-02-05T09:19:09.374Z,18.40
2018-02-05T09:20:09.433Z,20.40
2018-02-05T09:21:09.418Z,20.20
2018-02-05T09:22:09.449Z,21.00
2018-02-05T09:23:09.477Z,20.90
2018-02-05T09:24:09.509Z,20.70
2018-02-05T09:25:09.548Z,22.20
2018-02-05T09:26:09.561Z,20.10
2018-02-05T09:27:09.589Z,20.20
2018-02-05T09:28:09.621Z,19.20
2018-02-05T09:29:09.650Z,20.40
2018-02-05T09:30:09.679Z,21.10
2018-02-05T09:31:09.710Z,21.90
2018-02-05T09:32:09.740Z,18.90
2018-02-05T09:33:09.770Z,22.20
2018-02-05T09:34:09.797Z,19.90
2018-02-05T09:35:09.823Z,20.20
2018-02-05T09:36:09.850Z,20.80
2018-02-05T09:37:09.880Z,21.10
2018-02-05T09:38:09.910Z,21.70
2018-02-05T09:39:09.943Z,22.50
2018-02-05T09:40:09.966Z,20.90
2018-02-05T09:41:10.004Z,21.60
2018-02-05T09:42:10.031Z,21.40
2018-02-05T09:43:10.063Z,22.60
2018-02-05T09:44:10.082Z,19.00
2018-02-05T09:45:10.111Z,19.90
2018-02-05T09:46:10.144Z,21.50
2018-02-05T09:47:10.170Z,20.00
2018-02-05T09:48:10.202Z,18.90
2018-02-05T09:49:10.231Z,19.20
2018-02-05T09:50:10.258Z,18.50
2018-02-05T09:51:10.292Z,17.60
2018-02-05T09:52:10.318Z,19.30
2018-02-05T09:53:10.344Z,21.00
2018-02-05T09:54:10.384Z,23.60
2018-02-05T09:55:10.402Z,20.60
2018-02-05T09:56:10.457Z,19.30
2018-02-05T09:57:10.461Z,18.40
2018-02-05T09:58:10.493Z,18.10
2018-02-05T09:59:10.517Z,18.70
2018-02-05T10:00:10.549Z,19.30
2018-02-05T10:01:10.578Z,19.60
2018-02-05T10:02:10.608Z,18.70
2018-02-05T10:03:10.635Z,17.80
2018-02-05T10:04:10.666Z,19.40
2018-02-05T10:05:10.693Z,19.90
2018-02-05T10:06:10.728Z,19.20
2018-02-05T10:07:10.754Z,19.80
2018-02-05T10:08:10.845Z,19.80
2018-02-05T10:09:10.809Z,21.60
2018-02-05T10:10:10.843Z,19.50
2018-02-05T10:11:10.869Z,21.80
2018-02-05T10:12:10.898Z,20.80
2018-02-05T10:13:11.004Z,20.60
2018-02-05T10:14:10.958Z,18.40
2018-02-05T10:15:10.988Z,18.80
2018-02-05T10:16:11.015Z,18.60
2018-02-05T10:17:11.047Z,20.20
2018-02-05T10:18:11.079Z,20.30
2018-02-05T10:19:11.107Z,18.40
2018-02-05T10:20:11.202Z,19.40
2018-02-05T10:21:11.160Z,18.50
2018-02-05T10:22:11.201Z,17.70
2018-02-05T10:23:11.219Z,19.40
2018-02-05T10:24:11.253Z,18.80
2018-02-05T10:25:11.278Z,16.60
2018-02-05T10:26:11.306Z,18.50
2018-02-05T10:27:11.336Z,17.30
2018-02-05T10:28:11.370Z,17.30
2018-02-05T10:29:11.398Z,18.10
2018-02-05T10:30:11.438Z,16.60
2018-02-05T10:31:11.458Z,17.60
2018-02-05T10:32:11.560Z,17.70
2018-02-05T10:33:11.515Z,18.70
2018-02-05T10:34:11.537Z,17.90
2018-02-05T10:35:11.566Z,19.20
2018-02-05T10:36:11.600Z,18.10
2018-02-05T10:37:11.628Z,18.40
2018-02-05T10:38:11.658Z,18.90
2018-02-05T10:39:11.688Z,19.50
2018-02-05T10:40:11.719Z,19.20
2018-02-05T10:41:11.747Z,18.10
2018-02-05T10:42:11.774Z,22.10
2018-02-05T10:43:11.801Z,21.30
2018-02-05T10:44:11.832Z,19.40
2018-02-05T10:45:11.858Z,22.10
2018-02-05T10:46:11.893Z,18.00
2018-02-05T10:47:11.921Z,20.60
2018-02-05T10:48:11.950Z,16.90
2018-02-05T10:49:12.181Z,19.50
2018-02-05T10:50:12.010Z,17.90
2018-02-05T10:51:12.039Z,18.40
2018-02-05T10:52:12.065Z,18.80
2018-02-05T10:53:12.106Z,17.30
2018-02-05T10:54:12.132Z,18.30
2018-02-05T10:55:12.205Z,19.30
2018-02-05T10:56:12.209Z,19.10
2018-02-05T10:57:12.218Z,18.80
2018-02-05T10:58:12.251Z,19.30
2018-02-05T10:59:12.474Z,20.00
2018-02-05T11:00:12.304Z,17.40
2018-02-05T11:01:12.334Z,19.80
2018-02-05T11:02:12.362Z,19.80
2018-02-05T11:03:12.708Z,19.10
2018-02-05T11:04:12.427Z,19.60
2018-02-05T11:05:12.451Z,20.40
2018-02-05T11:06:12.480Z,19.50
2018-02-05T11:07:12.524Z,20.60
2018-02-05T11:08:12.535Z,18.70
2018-02-05T11:09:12.571Z,19.00
2018-02-05T11:11:12.637Z,18.30
2018-02-05T11:12:12.658Z,20.20
2018-02-05T11:13:12.684Z,17.90
2018-02-05T11:14:12.715Z,18.20
2018-02-05T11:15:12.742Z,20.60
2018-02-05T11:16:12.773Z,20.90
2018-02-05T11:17:12.810Z,20.90
2018-02-05T11:18:12.832Z,17.90
2018-02-05T11:19:12.862Z,21.70
2018-02-05T11:20:12.896Z,21.60
2018-02-05T11:21:12.917Z,20.30
2018-02-05T11:22:12.953Z,21.40
2018-02-05T11:23:12.981Z,19.00
2018-02-05T11:24:13.011Z,20.10
2018-02-05T11:25:13.034Z,19.80
2018-02-05T11:26:13.066Z,20.30
2018-02-05T11:27:13.095Z,21.30
2018-02-05T11:28:13.124Z,19.50
2018-02-05T11:29:13.214Z,22.70
2018-02-05T11:30:13.184Z,21.30
2018-02-05T11:31:13.215Z,20.10
2018-02-05T11:32:13.243Z,20.40
2018-02-05T11:33:13.270Z,20.80
2018-02-05T11:34:13.306Z,20.30
2018-02-05T11:35:13.327Z,21.90
2018-02-05T11:36:13.409Z,22.50
2018-02-05T11:37:13.392Z,22.20
2018-02-05T11:38:13.419Z,22.60
2018-02-05T11:39:13.503Z,20.40
2018-02-05T11:40:13.475Z,21.80
2018-02-05T11:41:13.508Z,22.10
2018-02-05T11:42:13.536Z,22.60
2018-02-05T11:43:13.566Z,23.60
2018-02-05T11:44:13.592Z,22.90
2018-02-05T11:45:13.622Z,22.00
2018-02-05T11:46:13.655Z,23.10
2018-02-05T11:47:13.682Z,22.90
2018-02-05T11:48:13.709Z,23.70
2018-02-05T11:49:13.742Z,21.70
2018-02-05T11:50:13.832Z,24.80
2018-02-05T11:51:13.807Z,25.30
2018-02-05T11:52:13.828Z,23.80
2018-02-05T11:53:13.859Z,27.20
2018-02-05T11:54:13.887Z,22.40
2018-02-05T11:55:13.917Z,20.30
2018-02-05T11:56:14.018Z,23.50
2018-02-05T11:57:13.999Z,22.40
2018-02-05T11:58:14.008Z,24.60
2018-02-05T11:59:14.033Z,22.20
2018-02-05T12:00:14.064Z,23.70
2018-02-05T12:01:14.093Z,22.20
2018-02-05T12:02:14.123Z,22.70
2018-02-05T12:03:14.151Z,22.10
2018-02-05T12:04:14.189Z,23.50
2018-02-05T12:05:14.210Z,23.90
2018-02-05T12:06:14.242Z,21.60
2018-02-05T12:07:14.272Z,24.20
2018-02-05T12:08:14.301Z,21.60
2018-02-05T12:09:14.342Z,22.70
2018-02-05T12:10:14.360Z,21.70
2018-02-05T12:11:14.390Z,22.60
2018-02-05T12:12:14.419Z,23.40
2018-02-05T12:13:14.490Z,23.70
2018-02-05T12:15:14.517Z,25.10
2018-02-05T12:16:14.540Z,23.30
2018-02-05T12:17:14.583Z,23.20
2018-02-05T12:18:14.602Z,24.30
2018-02-05T12:19:14.625Z,22.70
2018-02-05T12:20:14.658Z,24.40
2018-02-05T12:21:14.695Z,22.60
2018-02-05T12:22:14.717Z,23.70
2018-02-05T12:23:14.756Z,24.10
2018-02-05T12:24:14.776Z,22.90
2018-02-05T12:25:14.806Z,23.30
2018-02-05T12:26:14.833Z,23.30
2018-02-05T12:27:14.864Z,23.40
2018-02-05T12:28:14.894Z,23.20
2018-02-05T12:29:14.922Z,23.30
2018-02-05T12:30:14.951Z,26.60
2018-02-05T12:31:14.989Z,29.10
2018-02-05T12:32:15.108Z,29.10
2018-02-05T12:33:15.042Z,25.90
2018-02-05T12:34:15.072Z,24.40
2018-02-05T12:35:15.097Z,26.10
2018-02-05T12:36:15.127Z,24.90
2018-02-05T12:37:15.162Z,26.10
2018-02-05T12:38:15.185Z,26.80
2018-02-05T12:39:15.271Z,25.30
2018-02-05T12:40:15.242Z,22.50
2018-02-05T12:41:15.273Z,26.10
2018-02-05T12:42:15.308Z,24.20
2018-02-05T12:43:15.334Z,23.00
2018-02-05T12:44:15.363Z,19.40
2018-02-05T12:45:15.417Z,22.40
2018-02-05T12:46:15.419Z,21.50
2018-02-05T12:47:15.448Z,22.00
2018-02-05T12:48:15.475Z,21.20
2018-02-05T12:49:15.532Z,22.00
2018-02-05T12:50:15.536Z,22.40
2018-02-05T12:51:15.565Z,23.40
2018-02-05T12:52:15.595Z,23.00
2018-02-05T12:53:15.625Z,23.60
2018-02-05T12:55:15.684Z,22.40
2018-02-05T12:56:15.710Z,22.00
2018-02-05T12:57:15.746Z,20.50
2018-02-05T12:58:15.776Z,23.30
2018-02-05T12:59:15.797Z,24.80
2018-02-05T13:00:15.827Z,22.80
2018-02-05T13:01:15.858Z,24.40
2018-02-05T13:02:15.890Z,24.90